<?xml version="1.0" encoding="UTF-8" standalone="no" ?>
<gpx xmlns="http://www.topografix.com/GPX/1/1" xmlns:xsi="http://www.w3.org/2001/XMLSchema-instance" xsi:schemaLocation="http://www.topografix.com/GPX/1/1 http://www.topografix.com/GPX/1/1/gpx.xsd" version="1.1" creator="VisuGPX - https://www.visugpx.com">
  <metadata>
    <name>GTPR 2019</name>
  </metadata>
  <trk>
    <name><![CDATA[20190510164004-MpfnD]]></name>
    <trkseg>
      <trkpt lat="44.92122" lon="5.63633">
        <ele>806</ele>
        <time>2019-05-04T15:50:55Z</time>
      </trkpt>
      <trkpt lat="44.92186" lon="5.63547">
        <ele>806</ele>
        <time>2019-05-04T15:51:55Z</time>
      </trkpt>
      <trkpt lat="44.92337" lon="5.63473">
        <ele>825</ele>
        <time>2019-05-04T15:52:55Z</time>
      </trkpt>
      <trkpt lat="44.92567" lon="5.6348">
        <ele>825</ele>
        <time>2019-05-04T15:53:55Z</time>
      </trkpt>
      <trkpt lat="44.92702" lon="5.63513">
        <ele>818</ele>
        <time>2019-05-04T15:54:55Z</time>
      </trkpt>
      <trkpt lat="44.92836" lon="5.63529">
        <ele>815</ele>
        <time>2019-05-04T15:55:55Z</time>
      </trkpt>
      <trkpt lat="44.92988" lon="5.63409">
        <ele>815</ele>
        <time>2019-05-04T15:56:55Z</time>
      </trkpt>
      <trkpt lat="44.92916" lon="5.63233">
        <ele>811</ele>
        <time>2019-05-04T15:57:55Z</time>
      </trkpt>
      <trkpt lat="44.9286" lon="5.62975">
        <ele>815</ele>
        <time>2019-05-04T15:58:55Z</time>
      </trkpt>
      <trkpt lat="44.92937" lon="5.62865">
        <ele>809</ele>
        <time>2019-05-04T15:59:55Z</time>
      </trkpt>
      <trkpt lat="44.93129" lon="5.62281">
        <ele>808</ele>
        <time>2019-05-04T16:00:55Z</time>
      </trkpt>
      <trkpt lat="44.93125" lon="5.6212">
        <ele>813</ele>
        <time>2019-05-04T16:01:55Z</time>
      </trkpt>
      <trkpt lat="44.93324" lon="5.61987">
        <ele>821</ele>
        <time>2019-05-04T16:02:55Z</time>
      </trkpt>
      <trkpt lat="44.93434" lon="5.62008">
        <ele>821</ele>
        <time>2019-05-04T16:03:55Z</time>
      </trkpt>
      <trkpt lat="44.93418" lon="5.61888">
        <ele>830</ele>
        <time>2019-05-04T16:04:55Z</time>
      </trkpt>
      <trkpt lat="44.93412" lon="5.61536">
        <ele>843</ele>
        <time>2019-05-04T16:05:55Z</time>
      </trkpt>
      <trkpt lat="44.93481" lon="5.61321">
        <ele>841</ele>
        <time>2019-05-04T16:06:55Z</time>
      </trkpt>
      <trkpt lat="44.93571" lon="5.61158">
        <ele>848</ele>
        <time>2019-05-04T16:07:55Z</time>
      </trkpt>
      <trkpt lat="44.93681" lon="5.61013">
        <ele>847</ele>
        <time>2019-05-04T16:08:55Z</time>
      </trkpt>
      <trkpt lat="44.9384" lon="5.60923">
        <ele>845</ele>
        <time>2019-05-04T16:09:55Z</time>
      </trkpt>
      <trkpt lat="44.93978" lon="5.60893">
        <ele>841</ele>
        <time>2019-05-04T16:10:55Z</time>
      </trkpt>
      <trkpt lat="44.94187" lon="5.60765">
        <ele>836</ele>
        <time>2019-05-04T16:11:55Z</time>
      </trkpt>
      <trkpt lat="44.94306" lon="5.60643">
        <ele>839</ele>
        <time>2019-05-04T16:12:55Z</time>
      </trkpt>
      <trkpt lat="44.94487" lon="5.60638">
        <ele>838</ele>
        <time>2019-05-04T16:13:55Z</time>
      </trkpt>
      <trkpt lat="44.94637" lon="5.6049">
        <ele>839</ele>
        <time>2019-05-04T16:14:55Z</time>
      </trkpt>
      <trkpt lat="44.94725" lon="5.6037">
        <ele>842</ele>
        <time>2019-05-04T16:15:55Z</time>
      </trkpt>
      <trkpt lat="44.94803" lon="5.60229">
        <ele>845</ele>
        <time>2019-05-04T16:16:55Z</time>
      </trkpt>
      <trkpt lat="44.94792" lon="5.60012">
        <ele>856</ele>
        <time>2019-05-04T16:17:55Z</time>
      </trkpt>
      <trkpt lat="44.94812" lon="5.59831">
        <ele>866</ele>
        <time>2019-05-04T16:18:55Z</time>
      </trkpt>
      <trkpt lat="44.94776" lon="5.59755">
        <ele>877</ele>
        <time>2019-05-04T16:19:55Z</time>
      </trkpt>
      <trkpt lat="44.94798" lon="5.59653">
        <ele>876</ele>
        <time>2019-05-04T16:20:55Z</time>
      </trkpt>
      <trkpt lat="44.94792" lon="5.59466">
        <ele>889</ele>
        <time>2019-05-04T16:21:55Z</time>
      </trkpt>
      <trkpt lat="44.94828" lon="5.5917">
        <ele>892</ele>
        <time>2019-05-04T16:22:55Z</time>
      </trkpt>
      <trkpt lat="44.94778" lon="5.58834">
        <ele>926</ele>
        <time>2019-05-04T16:23:55Z</time>
      </trkpt>
      <trkpt lat="44.9481" lon="5.5867">
        <ele>920</ele>
        <time>2019-05-04T16:24:55Z</time>
      </trkpt>
      <trkpt lat="44.94801" lon="5.58581">
        <ele>935</ele>
        <time>2019-05-04T16:25:55Z</time>
      </trkpt>
      <trkpt lat="44.94848" lon="5.58525">
        <ele>929</ele>
        <time>2019-05-04T16:26:55Z</time>
      </trkpt>
      <trkpt lat="44.94855" lon="5.58433">
        <ele>952</ele>
        <time>2019-05-04T16:27:55Z</time>
      </trkpt>
      <trkpt lat="44.94893" lon="5.58336">
        <ele>948</ele>
        <time>2019-05-04T16:28:55Z</time>
      </trkpt>
      <trkpt lat="44.94888" lon="5.5828">
        <ele>963</ele>
        <time>2019-05-04T16:29:55Z</time>
      </trkpt>
      <trkpt lat="44.95043" lon="5.57787">
        <ele>980</ele>
        <time>2019-05-04T16:30:55Z</time>
      </trkpt>
      <trkpt lat="44.95108" lon="5.57517">
        <ele>966</ele>
        <time>2019-05-04T16:31:55Z</time>
      </trkpt>
      <trkpt lat="44.95052" lon="5.57461">
        <ele>982</ele>
        <time>2019-05-04T16:32:55Z</time>
      </trkpt>
      <trkpt lat="44.9496" lon="5.57422">
        <ele>987</ele>
        <time>2019-05-04T16:33:55Z</time>
      </trkpt>
      <trkpt lat="44.94892" lon="5.57422">
        <ele>997</ele>
        <time>2019-05-04T16:34:55Z</time>
      </trkpt>
      <trkpt lat="44.9481" lon="5.57379">
        <ele>994</ele>
        <time>2019-05-04T16:35:55Z</time>
      </trkpt>
      <trkpt lat="44.94751" lon="5.57382">
        <ele>1010</ele>
        <time>2019-05-04T16:36:55Z</time>
      </trkpt>
      <trkpt lat="44.94668" lon="5.57305">
        <ele>1009</ele>
        <time>2019-05-04T16:37:55Z</time>
      </trkpt>
      <trkpt lat="44.94576" lon="5.57287">
        <ele>1018</ele>
        <time>2019-05-04T16:38:55Z</time>
      </trkpt>
      <trkpt lat="44.94453" lon="5.57292">
        <ele>1036</ele>
        <time>2019-05-04T16:39:55Z</time>
      </trkpt>
      <trkpt lat="44.94368" lon="5.57216">
        <ele>1025</ele>
        <time>2019-05-04T16:40:55Z</time>
      </trkpt>
      <trkpt lat="44.94308" lon="5.57218">
        <ele>1040</ele>
        <time>2019-05-04T16:41:55Z</time>
      </trkpt>
      <trkpt lat="44.9416" lon="5.57165">
        <ele>1049</ele>
        <time>2019-05-04T16:42:55Z</time>
      </trkpt>
      <trkpt lat="44.94064" lon="5.572">
        <ele>1064</ele>
        <time>2019-05-04T16:43:55Z</time>
      </trkpt>
      <trkpt lat="44.9397" lon="5.57177">
        <ele>1061</ele>
        <time>2019-05-04T16:44:55Z</time>
      </trkpt>
      <trkpt lat="44.93909" lon="5.5716">
        <ele>1064</ele>
        <time>2019-05-04T16:45:55Z</time>
      </trkpt>
      <trkpt lat="44.93774" lon="5.57185">
        <ele>1074</ele>
        <time>2019-05-04T16:46:55Z</time>
      </trkpt>
      <trkpt lat="44.9368" lon="5.57198">
        <ele>1078</ele>
        <time>2019-05-04T16:47:55Z</time>
      </trkpt>
      <trkpt lat="44.93333" lon="5.57313">
        <ele>1092</ele>
        <time>2019-05-04T16:48:55Z</time>
      </trkpt>
      <trkpt lat="44.93284" lon="5.57251">
        <ele>1103</ele>
        <time>2019-05-04T16:49:55Z</time>
      </trkpt>
      <trkpt lat="44.93084" lon="5.57101">
        <ele>1129</ele>
        <time>2019-05-04T16:50:55Z</time>
      </trkpt>
      <trkpt lat="44.92878" lon="5.57129">
        <ele>1132</ele>
        <time>2019-05-04T16:51:55Z</time>
      </trkpt>
      <trkpt lat="44.92758" lon="5.57109">
        <ele>1131</ele>
        <time>2019-05-04T16:52:55Z</time>
      </trkpt>
      <trkpt lat="44.92605" lon="5.57022">
        <ele>1126</ele>
        <time>2019-05-04T16:53:55Z</time>
      </trkpt>
      <trkpt lat="44.92489" lon="5.56938">
        <ele>1129</ele>
        <time>2019-05-04T16:54:55Z</time>
      </trkpt>
      <trkpt lat="44.92393" lon="5.56989">
        <ele>1133</ele>
        <time>2019-05-04T16:55:55Z</time>
      </trkpt>
      <trkpt lat="44.92307" lon="5.56996">
        <ele>1133</ele>
        <time>2019-05-04T16:56:55Z</time>
      </trkpt>
      <trkpt lat="44.92126" lon="5.56897">
        <ele>1139</ele>
        <time>2019-05-04T16:57:55Z</time>
      </trkpt>
      <trkpt lat="44.91974" lon="5.57065">
        <ele>1147</ele>
        <time>2019-05-04T16:58:55Z</time>
      </trkpt>
      <trkpt lat="44.91911" lon="5.57091">
        <ele>1158</ele>
        <time>2019-05-04T16:59:55Z</time>
      </trkpt>
      <trkpt lat="44.91886" lon="5.56973">
        <ele>1152</ele>
        <time>2019-05-04T17:00:55Z</time>
      </trkpt>
      <trkpt lat="44.91799" lon="5.56876">
        <ele>1157</ele>
        <time>2019-05-04T17:01:55Z</time>
      </trkpt>
      <trkpt lat="44.91707" lon="5.56871">
        <ele>1159</ele>
        <time>2019-05-04T17:02:55Z</time>
      </trkpt>
      <trkpt lat="44.91546" lon="5.56807">
        <ele>1156</ele>
        <time>2019-05-04T17:03:55Z</time>
      </trkpt>
      <trkpt lat="44.91349" lon="5.56833">
        <ele>1155</ele>
        <time>2019-05-04T17:04:55Z</time>
      </trkpt>
      <trkpt lat="44.91027" lon="5.56953">
        <ele>1162</ele>
        <time>2019-05-04T17:05:55Z</time>
      </trkpt>
      <trkpt lat="44.90827" lon="5.5695">
        <ele>1167</ele>
        <time>2019-05-04T17:06:55Z</time>
      </trkpt>
      <trkpt lat="44.90633" lon="5.57017">
        <ele>1174</ele>
        <time>2019-05-04T17:07:55Z</time>
      </trkpt>
      <trkpt lat="44.90539" lon="5.56986">
        <ele>1178</ele>
        <time>2019-05-04T17:08:55Z</time>
      </trkpt>
      <trkpt lat="44.9042" lon="5.56958">
        <ele>1187</ele>
        <time>2019-05-04T17:09:55Z</time>
      </trkpt>
      <trkpt lat="44.90339" lon="5.56932">
        <ele>1190</ele>
        <time>2019-05-04T17:10:55Z</time>
      </trkpt>
      <trkpt lat="44.90256" lon="5.5683">
        <ele>1194</ele>
        <time>2019-05-04T17:11:55Z</time>
      </trkpt>
      <trkpt lat="44.90228" lon="5.56726">
        <ele>1197</ele>
        <time>2019-05-04T17:12:55Z</time>
      </trkpt>
      <trkpt lat="44.90171" lon="5.56657">
        <ele>1202</ele>
        <time>2019-05-04T17:13:55Z</time>
      </trkpt>
      <trkpt lat="44.90102" lon="5.56639">
        <ele>1207</ele>
        <time>2019-05-04T17:14:55Z</time>
      </trkpt>
      <trkpt lat="44.90028" lon="5.56636">
        <ele>1215</ele>
        <time>2019-05-04T17:15:55Z</time>
      </trkpt>
      <trkpt lat="44.89992" lon="5.567">
        <ele>1223</ele>
        <time>2019-05-04T17:16:55Z</time>
      </trkpt>
      <trkpt lat="44.89786" lon="5.567">
        <ele>1243</ele>
        <time>2019-05-04T17:17:55Z</time>
      </trkpt>
      <trkpt lat="44.89679" lon="5.56693">
        <ele>1256</ele>
        <time>2019-05-04T17:18:55Z</time>
      </trkpt>
      <trkpt lat="44.89607" lon="5.56649">
        <ele>1268</ele>
        <time>2019-05-04T17:19:55Z</time>
      </trkpt>
      <trkpt lat="44.89654" lon="5.56761">
        <ele>1264</ele>
        <time>2019-05-04T17:20:55Z</time>
      </trkpt>
      <trkpt lat="44.89621" lon="5.56818">
        <ele>1267</ele>
        <time>2019-05-04T17:21:55Z</time>
      </trkpt>
      <trkpt lat="44.89574" lon="5.56889">
        <ele>1270</ele>
        <time>2019-05-04T17:22:55Z</time>
      </trkpt>
      <trkpt lat="44.89487" lon="5.56881">
        <ele>1274</ele>
        <time>2019-05-04T17:23:55Z</time>
      </trkpt>
      <trkpt lat="44.89433" lon="5.56736">
        <ele>1288</ele>
        <time>2019-05-04T17:24:55Z</time>
      </trkpt>
      <trkpt lat="44.89283" lon="5.56761">
        <ele>1304</ele>
        <time>2019-05-04T17:25:55Z</time>
      </trkpt>
      <trkpt lat="44.89162" lon="5.56779">
        <ele>1312</ele>
        <time>2019-05-04T17:26:55Z</time>
      </trkpt>
      <trkpt lat="44.89052" lon="5.56774">
        <ele>1308</ele>
        <time>2019-05-04T17:27:55Z</time>
      </trkpt>
      <trkpt lat="44.89017" lon="5.567">
        <ele>1325</ele>
        <time>2019-05-04T17:28:55Z</time>
      </trkpt>
      <trkpt lat="44.88976" lon="5.56749">
        <ele>1310</ele>
        <time>2019-05-04T17:29:55Z</time>
      </trkpt>
      <trkpt lat="44.88896" lon="5.56733">
        <ele>1312</ele>
        <time>2019-05-04T17:30:55Z</time>
      </trkpt>
      <trkpt lat="44.88864" lon="5.5671">
        <ele>1316</ele>
        <time>2019-05-04T17:31:55Z</time>
      </trkpt>
      <trkpt lat="44.88797" lon="5.56652">
        <ele>1334</ele>
        <time>2019-05-04T17:32:55Z</time>
      </trkpt>
      <trkpt lat="44.88768" lon="5.56713">
        <ele>1324</ele>
        <time>2019-05-04T17:33:55Z</time>
      </trkpt>
      <trkpt lat="44.88715" lon="5.56731">
        <ele>1325</ele>
        <time>2019-05-04T17:34:55Z</time>
      </trkpt>
      <trkpt lat="44.88645" lon="5.56703">
        <ele>1339</ele>
        <time>2019-05-04T17:35:55Z</time>
      </trkpt>
      <trkpt lat="44.88553" lon="5.56718">
        <ele>1345</ele>
        <time>2019-05-04T17:36:55Z</time>
      </trkpt>
      <trkpt lat="44.88426" lon="5.567">
        <ele>1358</ele>
        <time>2019-05-04T17:37:55Z</time>
      </trkpt>
      <trkpt lat="44.88356" lon="5.56716">
        <ele>1359</ele>
        <time>2019-05-04T17:38:55Z</time>
      </trkpt>
      <trkpt lat="44.88193" lon="5.56693">
        <ele>1354</ele>
        <time>2019-05-04T17:39:55Z</time>
      </trkpt>
      <trkpt lat="44.88124" lon="5.56708">
        <ele>1352</ele>
        <time>2019-05-04T17:40:55Z</time>
      </trkpt>
      <trkpt lat="44.87962" lon="5.56672">
        <ele>1330</ele>
        <time>2019-05-04T17:41:55Z</time>
      </trkpt>
      <trkpt lat="44.87904" lon="5.56685">
        <ele>1328</ele>
        <time>2019-05-04T17:42:55Z</time>
      </trkpt>
      <trkpt lat="44.8782" lon="5.56682">
        <ele>1320</ele>
        <time>2019-05-04T17:43:55Z</time>
      </trkpt>
      <trkpt lat="44.87558" lon="5.56598">
        <ele>1284</ele>
        <time>2019-05-04T17:44:55Z</time>
      </trkpt>
      <trkpt lat="44.875" lon="5.56591">
        <ele>1277</ele>
        <time>2019-05-04T17:45:55Z</time>
      </trkpt>
      <trkpt lat="44.87562" lon="5.56557">
        <ele>1274</ele>
        <time>2019-05-04T17:46:55Z</time>
      </trkpt>
      <trkpt lat="44.8771" lon="5.56501">
        <ele>1265</ele>
        <time>2019-05-04T17:47:55Z</time>
      </trkpt>
      <trkpt lat="44.8773" lon="5.56254">
        <ele>1239</ele>
        <time>2019-05-04T17:48:55Z</time>
      </trkpt>
      <trkpt lat="44.87602" lon="5.56172">
        <ele>1218</ele>
        <time>2019-05-04T17:49:55Z</time>
      </trkpt>
      <trkpt lat="44.87502" lon="5.55968">
        <ele>1203</ele>
        <time>2019-05-04T17:50:55Z</time>
      </trkpt>
      <trkpt lat="44.87493" lon="5.55919">
        <ele>1204</ele>
        <time>2019-05-04T17:51:55Z</time>
      </trkpt>
      <trkpt lat="44.87444" lon="5.55907">
        <ele>1203</ele>
        <time>2019-05-04T17:52:55Z</time>
      </trkpt>
      <trkpt lat="44.8735" lon="5.5595">
        <ele>1187</ele>
        <time>2019-05-04T17:53:55Z</time>
      </trkpt>
      <trkpt lat="44.87301" lon="5.5595">
        <ele>1177</ele>
        <time>2019-05-04T17:54:55Z</time>
      </trkpt>
      <trkpt lat="44.87231" lon="5.5584">
        <ele>1175</ele>
        <time>2019-05-04T17:55:55Z</time>
      </trkpt>
      <trkpt lat="44.87171" lon="5.55845">
        <ele>1157</ele>
        <time>2019-05-04T17:56:55Z</time>
      </trkpt>
      <trkpt lat="44.87099" lon="5.55807">
        <ele>1153</ele>
        <time>2019-05-04T17:57:55Z</time>
      </trkpt>
      <trkpt lat="44.87005" lon="5.55835">
        <ele>1133</ele>
        <time>2019-05-04T17:58:55Z</time>
      </trkpt>
      <trkpt lat="44.86938" lon="5.55769">
        <ele>1136</ele>
        <time>2019-05-04T17:59:55Z</time>
      </trkpt>
      <trkpt lat="44.86871" lon="5.55715">
        <ele>1130</ele>
        <time>2019-05-04T18:00:55Z</time>
      </trkpt>
      <trkpt lat="44.86828" lon="5.55654">
        <ele>1129</ele>
        <time>2019-05-04T18:01:55Z</time>
      </trkpt>
      <trkpt lat="44.86799" lon="5.55687">
        <ele>1138</ele>
        <time>2019-05-04T18:02:55Z</time>
      </trkpt>
      <trkpt lat="44.86795" lon="5.55838">
        <ele>1127</ele>
        <time>2019-05-04T18:03:55Z</time>
      </trkpt>
      <trkpt lat="44.86777" lon="5.55873">
        <ele>1129</ele>
        <time>2019-05-04T18:04:55Z</time>
      </trkpt>
      <trkpt lat="44.86654" lon="5.55873">
        <ele>1147</ele>
        <time>2019-05-04T18:05:55Z</time>
      </trkpt>
      <trkpt lat="44.86629" lon="5.55968">
        <ele>1147</ele>
        <time>2019-05-04T18:06:55Z</time>
      </trkpt>
      <trkpt lat="44.86578" lon="5.55991">
        <ele>1155</ele>
        <time>2019-05-04T18:07:55Z</time>
      </trkpt>
      <trkpt lat="44.86544" lon="5.5593">
        <ele>1159</ele>
        <time>2019-05-04T18:08:55Z</time>
      </trkpt>
      <trkpt lat="44.86573" lon="5.55848">
        <ele>1160</ele>
        <time>2019-05-04T18:09:55Z</time>
      </trkpt>
      <trkpt lat="44.86517" lon="5.55845">
        <ele>1167</ele>
        <time>2019-05-04T18:10:55Z</time>
      </trkpt>
      <trkpt lat="44.86477" lon="5.55889">
        <ele>1168</ele>
        <time>2019-05-04T18:11:55Z</time>
      </trkpt>
      <trkpt lat="44.86473" lon="5.55817">
        <ele>1173</ele>
        <time>2019-05-04T18:12:55Z</time>
      </trkpt>
      <trkpt lat="44.86242" lon="5.55542">
        <ele>1197</ele>
        <time>2019-05-04T18:13:55Z</time>
      </trkpt>
      <trkpt lat="44.86173" lon="5.55442">
        <ele>1201</ele>
        <time>2019-05-04T18:14:55Z</time>
      </trkpt>
      <trkpt lat="44.86108" lon="5.55251">
        <ele>1200</ele>
        <time>2019-05-04T18:15:55Z</time>
      </trkpt>
      <trkpt lat="44.86099" lon="5.55126">
        <ele>1203</ele>
        <time>2019-05-04T18:16:55Z</time>
      </trkpt>
      <trkpt lat="44.86084" lon="5.55082">
        <ele>1206</ele>
        <time>2019-05-04T18:17:55Z</time>
      </trkpt>
      <trkpt lat="44.8595" lon="5.54998">
        <ele>1210</ele>
        <time>2019-05-04T18:18:55Z</time>
      </trkpt>
      <trkpt lat="44.85846" lon="5.54873">
        <ele>1223</ele>
        <time>2019-05-04T18:19:55Z</time>
      </trkpt>
      <trkpt lat="44.85753" lon="5.5482">
        <ele>1216</ele>
        <time>2019-05-04T18:20:55Z</time>
      </trkpt>
      <trkpt lat="44.85665" lon="5.54738">
        <ele>1219</ele>
        <time>2019-05-04T18:21:55Z</time>
      </trkpt>
      <trkpt lat="44.85589" lon="5.54621">
        <ele>1227</ele>
        <time>2019-05-04T18:22:55Z</time>
      </trkpt>
      <trkpt lat="44.85543" lon="5.54646">
        <ele>1227</ele>
        <time>2019-05-04T18:23:55Z</time>
      </trkpt>
      <trkpt lat="44.85589" lon="5.5485">
        <ele>1218</ele>
        <time>2019-05-04T18:24:55Z</time>
      </trkpt>
      <trkpt lat="44.8561" lon="5.55126">
        <ele>1205</ele>
        <time>2019-05-04T18:25:55Z</time>
      </trkpt>
      <trkpt lat="44.85612" lon="5.55225">
        <ele>1197</ele>
        <time>2019-05-04T18:26:55Z</time>
      </trkpt>
      <trkpt lat="44.85677" lon="5.55396">
        <ele>1174</ele>
        <time>2019-05-04T18:27:55Z</time>
      </trkpt>
      <trkpt lat="44.85733" lon="5.55458">
        <ele>1161</ele>
        <time>2019-05-04T18:28:55Z</time>
      </trkpt>
      <trkpt lat="44.85741" lon="5.55549">
        <ele>1156</ele>
        <time>2019-05-04T18:29:55Z</time>
      </trkpt>
      <trkpt lat="44.8579" lon="5.55718">
        <ele>1137</ele>
        <time>2019-05-04T18:30:55Z</time>
      </trkpt>
      <trkpt lat="44.85829" lon="5.55761">
        <ele>1130</ele>
        <time>2019-05-04T18:31:55Z</time>
      </trkpt>
      <trkpt lat="44.8588" lon="5.55677">
        <ele>1134</ele>
        <time>2019-05-04T18:32:55Z</time>
      </trkpt>
      <trkpt lat="44.85914" lon="5.55725">
        <ele>1128</ele>
        <time>2019-05-04T18:33:55Z</time>
      </trkpt>
      <trkpt lat="44.85963" lon="5.55843">
        <ele>1112</ele>
        <time>2019-05-04T18:34:55Z</time>
      </trkpt>
      <trkpt lat="44.85923" lon="5.55891">
        <ele>1112</ele>
        <time>2019-05-04T18:35:55Z</time>
      </trkpt>
      <trkpt lat="44.85956" lon="5.56004">
        <ele>1116</ele>
        <time>2019-05-04T18:36:55Z</time>
      </trkpt>
      <trkpt lat="44.86045" lon="5.56075">
        <ele>1114</ele>
        <time>2019-05-04T18:37:55Z</time>
      </trkpt>
      <trkpt lat="44.8613" lon="5.5621">
        <ele>1123</ele>
        <time>2019-05-04T18:38:55Z</time>
      </trkpt>
      <trkpt lat="44.86121" lon="5.56269">
        <ele>1139</ele>
        <time>2019-05-04T18:39:55Z</time>
      </trkpt>
      <trkpt lat="44.86186" lon="5.56287">
        <ele>1128</ele>
        <time>2019-05-04T18:40:55Z</time>
      </trkpt>
      <trkpt lat="44.86289" lon="5.56371">
        <ele>1142</ele>
        <time>2019-05-04T18:41:55Z</time>
      </trkpt>
      <trkpt lat="44.86403" lon="5.56534">
        <ele>1165</ele>
        <time>2019-05-04T18:42:55Z</time>
      </trkpt>
      <trkpt lat="44.86343" lon="5.56519">
        <ele>1174</ele>
        <time>2019-05-04T18:43:55Z</time>
      </trkpt>
      <trkpt lat="44.86287" lon="5.56494">
        <ele>1179</ele>
        <time>2019-05-04T18:44:55Z</time>
      </trkpt>
      <trkpt lat="44.8622" lon="5.56445">
        <ele>1177</ele>
        <time>2019-05-04T18:45:55Z</time>
      </trkpt>
      <trkpt lat="44.86157" lon="5.56427">
        <ele>1180</ele>
        <time>2019-05-04T18:46:55Z</time>
      </trkpt>
      <trkpt lat="44.86064" lon="5.56422">
        <ele>1190</ele>
        <time>2019-05-04T18:47:55Z</time>
      </trkpt>
      <trkpt lat="44.85972" lon="5.56435">
        <ele>1205</ele>
        <time>2019-05-04T18:48:55Z</time>
      </trkpt>
      <trkpt lat="44.85891" lon="5.56476">
        <ele>1220</ele>
        <time>2019-05-04T18:49:55Z</time>
      </trkpt>
      <trkpt lat="44.85824" lon="5.5645">
        <ele>1219</ele>
        <time>2019-05-04T18:50:55Z</time>
      </trkpt>
      <trkpt lat="44.85775" lon="5.56422">
        <ele>1217</ele>
        <time>2019-05-04T18:51:55Z</time>
      </trkpt>
      <trkpt lat="44.85733" lon="5.56463">
        <ele>1223</ele>
        <time>2019-05-04T18:52:55Z</time>
      </trkpt>
      <trkpt lat="44.85715" lon="5.56509">
        <ele>1230</ele>
        <time>2019-05-04T18:53:55Z</time>
      </trkpt>
      <trkpt lat="44.8579" lon="5.56552">
        <ele>1239</ele>
        <time>2019-05-04T18:54:55Z</time>
      </trkpt>
      <trkpt lat="44.85932" lon="5.5658">
        <ele>1246</ele>
        <time>2019-05-04T18:55:55Z</time>
      </trkpt>
      <trkpt lat="44.86048" lon="5.56611">
        <ele>1256</ele>
        <time>2019-05-04T18:56:55Z</time>
      </trkpt>
      <trkpt lat="44.86135" lon="5.56667">
        <ele>1260</ele>
        <time>2019-05-04T18:57:55Z</time>
      </trkpt>
      <trkpt lat="44.86191" lon="5.56746">
        <ele>1275</ele>
        <time>2019-05-04T18:58:55Z</time>
      </trkpt>
      <trkpt lat="44.86278" lon="5.56805">
        <ele>1283</ele>
        <time>2019-05-04T18:59:55Z</time>
      </trkpt>
      <trkpt lat="44.862" lon="5.56795">
        <ele>1292</ele>
        <time>2019-05-04T19:00:55Z</time>
      </trkpt>
      <trkpt lat="44.86137" lon="5.56764">
        <ele>1293</ele>
        <time>2019-05-04T19:01:55Z</time>
      </trkpt>
      <trkpt lat="44.86086" lon="5.56736">
        <ele>1294</ele>
        <time>2019-05-04T19:02:55Z</time>
      </trkpt>
      <trkpt lat="44.86005" lon="5.56759">
        <ele>1304</ele>
        <time>2019-05-04T19:03:55Z</time>
      </trkpt>
      <trkpt lat="44.85903" lon="5.56828">
        <ele>1319</ele>
        <time>2019-05-04T19:04:55Z</time>
      </trkpt>
      <trkpt lat="44.85786" lon="5.56869">
        <ele>1323</ele>
        <time>2019-05-04T19:05:55Z</time>
      </trkpt>
      <trkpt lat="44.85739" lon="5.56897">
        <ele>1328</ele>
        <time>2019-05-04T19:06:55Z</time>
      </trkpt>
      <trkpt lat="44.85659" lon="5.56922">
        <ele>1324</ele>
        <time>2019-05-04T19:07:55Z</time>
      </trkpt>
      <trkpt lat="44.8569" lon="5.5704">
        <ele>1316</ele>
        <time>2019-05-04T19:08:55Z</time>
      </trkpt>
      <trkpt lat="44.85762" lon="5.57121">
        <ele>1325</ele>
        <time>2019-05-04T19:09:55Z</time>
      </trkpt>
      <trkpt lat="44.858" lon="5.57236">
        <ele>1312</ele>
        <time>2019-05-04T19:10:55Z</time>
      </trkpt>
      <trkpt lat="44.85786" lon="5.57397">
        <ele>1288</ele>
        <time>2019-05-04T19:11:55Z</time>
      </trkpt>
      <trkpt lat="44.85786" lon="5.57524">
        <ele>1290</ele>
        <time>2019-05-04T19:12:55Z</time>
      </trkpt>
      <trkpt lat="44.858" lon="5.57672">
        <ele>1293</ele>
        <time>2019-05-04T19:13:55Z</time>
      </trkpt>
      <trkpt lat="44.85786" lon="5.57823">
        <ele>1282</ele>
        <time>2019-05-04T19:14:55Z</time>
      </trkpt>
      <trkpt lat="44.85775" lon="5.57963">
        <ele>1258</ele>
        <time>2019-05-04T19:15:55Z</time>
      </trkpt>
      <trkpt lat="44.85779" lon="5.58114">
        <ele>1237</ele>
        <time>2019-05-04T19:16:55Z</time>
      </trkpt>
      <trkpt lat="44.85782" lon="5.58224">
        <ele>1234</ele>
        <time>2019-05-04T19:17:55Z</time>
      </trkpt>
      <trkpt lat="44.85741" lon="5.58379">
        <ele>1242</ele>
        <time>2019-05-04T19:18:55Z</time>
      </trkpt>
      <trkpt lat="44.85697" lon="5.5842">
        <ele>1237</ele>
        <time>2019-05-04T19:19:55Z</time>
      </trkpt>
      <trkpt lat="44.85659" lon="5.58448">
        <ele>1236</ele>
        <time>2019-05-04T19:20:55Z</time>
      </trkpt>
      <trkpt lat="44.85594" lon="5.58471">
        <ele>1230</ele>
        <time>2019-05-04T19:21:55Z</time>
      </trkpt>
      <trkpt lat="44.85511" lon="5.58479">
        <ele>1226</ele>
        <time>2019-05-04T19:22:55Z</time>
      </trkpt>
      <trkpt lat="44.85426" lon="5.58448">
        <ele>1208</ele>
        <time>2019-05-04T19:23:55Z</time>
      </trkpt>
      <trkpt lat="44.8539" lon="5.58471">
        <ele>1213</ele>
        <time>2019-05-04T19:24:55Z</time>
      </trkpt>
      <trkpt lat="44.85437" lon="5.58415">
        <ele>1196</ele>
        <time>2019-05-04T19:25:55Z</time>
      </trkpt>
      <trkpt lat="44.85502" lon="5.58356">
        <ele>1188</ele>
        <time>2019-05-04T19:26:55Z</time>
      </trkpt>
      <trkpt lat="44.85551" lon="5.58275">
        <ele>1178</ele>
        <time>2019-05-04T19:27:55Z</time>
      </trkpt>
      <trkpt lat="44.8546" lon="5.58316">
        <ele>1174</ele>
        <time>2019-05-04T19:28:55Z</time>
      </trkpt>
      <trkpt lat="44.85381" lon="5.5831">
        <ele>1166</ele>
        <time>2019-05-04T19:29:55Z</time>
      </trkpt>
      <trkpt lat="44.8533" lon="5.58275">
        <ele>1155</ele>
        <time>2019-05-04T19:30:55Z</time>
      </trkpt>
      <trkpt lat="44.85283" lon="5.5828">
        <ele>1153</ele>
        <time>2019-05-04T19:31:55Z</time>
      </trkpt>
      <trkpt lat="44.85247" lon="5.58234">
        <ele>1141</ele>
        <time>2019-05-04T19:32:55Z</time>
      </trkpt>
      <trkpt lat="44.85191" lon="5.58259">
        <ele>1138</ele>
        <time>2019-05-04T19:33:55Z</time>
      </trkpt>
      <trkpt lat="44.85131" lon="5.58303">
        <ele>1140</ele>
        <time>2019-05-04T19:34:55Z</time>
      </trkpt>
      <trkpt lat="44.85088" lon="5.5831">
        <ele>1136</ele>
        <time>2019-05-04T19:35:55Z</time>
      </trkpt>
      <trkpt lat="44.85053" lon="5.58282">
        <ele>1129</ele>
        <time>2019-05-04T19:36:55Z</time>
      </trkpt>
      <trkpt lat="44.85012" lon="5.58267">
        <ele>1124</ele>
        <time>2019-05-04T19:37:55Z</time>
      </trkpt>
      <trkpt lat="44.85077" lon="5.58244">
        <ele>1120</ele>
        <time>2019-05-04T19:38:55Z</time>
      </trkpt>
      <trkpt lat="44.85136" lon="5.58178">
        <ele>1112</ele>
        <time>2019-05-04T19:39:55Z</time>
      </trkpt>
      <trkpt lat="44.85164" lon="5.58116">
        <ele>1101</ele>
        <time>2019-05-04T19:40:55Z</time>
      </trkpt>
      <trkpt lat="44.85212" lon="5.58053">
        <ele>1095</ele>
        <time>2019-05-04T19:41:55Z</time>
      </trkpt>
      <trkpt lat="44.8527" lon="5.58017">
        <ele>1095</ele>
        <time>2019-05-04T19:42:55Z</time>
      </trkpt>
      <trkpt lat="44.85314" lon="5.57935">
        <ele>1087</ele>
        <time>2019-05-04T19:43:55Z</time>
      </trkpt>
      <trkpt lat="44.85265" lon="5.57943">
        <ele>1082</ele>
        <time>2019-05-04T19:44:55Z</time>
      </trkpt>
      <trkpt lat="44.85184" lon="5.57923">
        <ele>1065</ele>
        <time>2019-05-04T19:45:55Z</time>
      </trkpt>
      <trkpt lat="44.8512" lon="5.57923">
        <ele>1059</ele>
        <time>2019-05-04T19:46:55Z</time>
      </trkpt>
      <trkpt lat="44.85066" lon="5.57887">
        <ele>1060</ele>
        <time>2019-05-04T19:47:55Z</time>
      </trkpt>
      <trkpt lat="44.84975" lon="5.57912">
        <ele>1049</ele>
        <time>2019-05-04T19:48:55Z</time>
      </trkpt>
      <trkpt lat="44.84907" lon="5.57933">
        <ele>1044</ele>
        <time>2019-05-04T19:49:55Z</time>
      </trkpt>
      <trkpt lat="44.84836" lon="5.57938">
        <ele>1040</ele>
        <time>2019-05-04T19:50:55Z</time>
      </trkpt>
      <trkpt lat="44.8476" lon="5.57968">
        <ele>1035</ele>
        <time>2019-05-04T19:51:55Z</time>
      </trkpt>
      <trkpt lat="44.84695" lon="5.57989">
        <ele>1030</ele>
        <time>2019-05-04T19:52:55Z</time>
      </trkpt>
      <trkpt lat="44.84644" lon="5.57989">
        <ele>1027</ele>
        <time>2019-05-04T19:53:55Z</time>
      </trkpt>
      <trkpt lat="44.8463" lon="5.57953">
        <ele>1028</ele>
        <time>2019-05-04T19:54:55Z</time>
      </trkpt>
      <trkpt lat="44.84552" lon="5.57963">
        <ele>1024</ele>
        <time>2019-05-04T19:55:55Z</time>
      </trkpt>
    </trkseg>
  </trk>
</gpx>